sensor_id;sensor_type;location;lat;lon;timestamp;temperature;humidity
47773;DHT22;33534;51.028;13.716;2024-02-21T00:00:47;18.50;74.40
47773;DHT22;33534;51.028;13.716;2024-02-21T00:03:13;18.50;74.40
47773;DHT22;33534;51.028;13.716;2024-02-21T00:05:39;18.50;74.50
47773;DHT22;33534;51.028;13.716;2024-02-21T00:08:05;18.50;74.60
47773;DHT22;33534;51.028;13.716;2024-02-21T00:10:30;18.50;74.50
47773;DHT22;33534;51.028;13.716;2024-02-21T00:13:00;18.50;74.70
47773;DHT22;33534;51.028;13.716;2024-02-21T00:15:26;18.50;74.50
47773;DHT22;33534;51.028;13.716;2024-02-21T00:17:52;18.60;74.70
47773;DHT22;33534;51.028;13.716;2024-02-21T00:20:17;18.50;74.50
47773;DHT22;33534;51.028;13.716;2024-02-21T00:22:44;18.50;74.80
47773;DHT22;33534;51.028;13.716;2024-02-21T00:25:09;18.50;74.80
47773;DHT22;33534;51.028;13.716;2024-02-21T00:27:35;18.50;74.90
47773;DHT22;33534;51.028;13.716;2024-02-21T00:30:01;18.50;75.10
47773;DHT22;33534;51.028;13.716;2024-02-21T00:32:26;18.50;75.10
47773;DHT22;33534;51.028;13.716;2024-02-21T00:34:52;18.50;75.30
47773;DHT22;33534;51.028;13.716;2024-02-21T00:37:17;18.50;75.30
47773;DHT22;33534;51.028;13.716;2024-02-21T00:39:43;18.50;75.30
47773;DHT22;33534;51.028;13.716;2024-02-21T00:42:09;18.50;75.20
47773;DHT22;33534;51.028;13.716;2024-02-21T00:44:34;18.50;75.30
47773;DHT22;33534;51.028;13.716;2024-02-21T00:47:00;18.50;75.40
47773;DHT22;33534;51.028;13.716;2024-02-21T00:49:25;18.50;75.40
47773;DHT22;33534;51.028;13.716;2024-02-21T00:51:51;18.50;75.30
47773;DHT22;33534;51.028;13.716;2024-02-21T00:54:16;18.50;75.40
47773;DHT22;33534;51.028;13.716;2024-02-21T00:56:42;18.50;75.30
47773;DHT22;33534;51.028;13.716;2024-02-21T00:59:08;18.50;75.20
47773;DHT22;33534;51.028;13.716;2024-02-21T01:01:34;18.60;75.20
47773;DHT22;33534;51.028;13.716;2024-02-21T01:03:59;18.60;75.40
47773;DHT22;33534;51.028;13.716;2024-02-21T01:06:25;18.50;75.50
47773;DHT22;33534;51.028;13.716;2024-02-21T01:08:51;18.50;75.50
47773;DHT22;33534;51.028;13.716;2024-02-21T01:11:17;18.50;75.50
47773;DHT22;33534;51.028;13.716;2024-02-21T01:13:43;18.60;75.60
47773;DHT22;33534;51.028;13.716;2024-02-21T01:16:08;18.60;75.70
47773;DHT22;33534;51.028;13.716;2024-02-21T01:18:36;18.60;75.70
47773;DHT22;33534;51.028;13.716;2024-02-21T01:21:02;18.50;75.80
47773;DHT22;33534;51.028;13.716;2024-02-21T01:23:28;18.60;75.90
47773;DHT22;33534;51.028;13.716;2024-02-21T01:25:53;18.60;75.80
47773;DHT22;33534;51.028;13.716;2024-02-21T01:28:20;18.60;75.90
47773;DHT22;33534;51.028;13.716;2024-02-21T01:30:46;18.60;75.80
47773;DHT22;33534;51.028;13.716;2024-02-21T01:33:11;18.60;76.00
47773;DHT22;33534;51.028;13.716;2024-02-21T01:35:37;18.50;76.00
47773;DHT22;33534;51.028;13.716;2024-02-21T01:38:03;18.50;76.00
47773;DHT22;33534;51.028;13.716;2024-02-21T01:40:29;18.50;76.30
47773;DHT22;33534;51.028;13.716;2024-02-21T01:42:55;18.50;76.30
47773;DHT22;33534;51.028;13.716;2024-02-21T01:45:21;18.50;76.30
47773;DHT22;33534;51.028;13.716;2024-02-21T01:47:48;18.60;76.20
47773;DHT22;33534;51.028;13.716;2024-02-21T01:50:15;18.50;76.30
47773;DHT22;33534;51.028;13.716;2024-02-21T01:52:41;18.60;76.20
47773;DHT22;33534;51.028;13.716;2024-02-21T01:55:07;18.60;76.30
47773;DHT22;33534;51.028;13.716;2024-02-21T01:57:35;18.60;76.20
47773;DHT22;33534;51.028;13.716;2024-02-21T02:00:01;18.50;76.20
47773;DHT22;33534;51.028;13.716;2024-02-21T02:02:27;18.60;76.30
47773;DHT22;33534;51.028;13.716;2024-02-21T02:04:52;18.60;76.30
47773;DHT22;33534;51.028;13.716;2024-02-21T02:07:18;18.60;76.50
47773;DHT22;33534;51.028;13.716;2024-02-21T02:09:44;18.60;76.60
47773;DHT22;33534;51.028;13.716;2024-02-21T02:12:09;18.50;76.50
47773;DHT22;33534;51.028;13.716;2024-02-21T02:14:35;18.60;76.40
47773;DHT22;33534;51.028;13.716;2024-02-21T02:17:01;18.60;76.30
47773;DHT22;33534;51.028;13.716;2024-02-21T02:19:26;18.60;76.40
47773;DHT22;33534;51.028;13.716;2024-02-21T02:21:59;18.60;76.40
47773;DHT22;33534;51.028;13.716;2024-02-21T02:24:25;18.60;76.50
47773;DHT22;33534;51.028;13.716;2024-02-21T02:26:51;18.60;76.60
47773;DHT22;33534;51.028;13.716;2024-02-21T02:29:17;18.60;76.60
47773;DHT22;33534;51.028;13.716;2024-02-21T02:31:43;18.60;76.50
47773;DHT22;33534;51.028;13.716;2024-02-21T02:34:08;18.60;76.50
47773;DHT22;33534;51.028;13.716;2024-02-21T02:36:36;18.60;76.50
47773;DHT22;33534;51.028;13.716;2024-02-21T02:39:02;18.60;76.50
47773;DHT22;33534;51.028;13.716;2024-02-21T02:41:27;18.60;76.40
47773;DHT22;33534;51.028;13.716;2024-02-21T02:43:53;18.60;76.70
47773;DHT22;33534;51.028;13.716;2024-02-21T02:46:18;18.60;76.60
47773;DHT22;33534;51.028;13.716;2024-02-21T02:48:44;18.60;76.60
47773;DHT22;33534;51.028;13.716;2024-02-21T02:51:10;18.60;76.60
47773;DHT22;33534;51.028;13.716;2024-02-21T02:53:36;18.60;76.60
47773;DHT22;33534;51.028;13.716;2024-02-21T02:56:01;18.60;76.60
47773;DHT22;33534;51.028;13.716;2024-02-21T02:58:27;18.60;76.80
47773;DHT22;33534;51.028;13.716;2024-02-21T03:00:53;18.60;76.60
47773;DHT22;33534;51.028;13.716;2024-02-21T03:03:19;18.50;76.80
47773;DHT22;33534;51.028;13.716;2024-02-21T03:05:45;18.50;76.90
47773;DHT22;33534;51.028;13.716;2024-02-21T03:08:14;18.60;76.80
47773;DHT22;33534;51.028;13.716;2024-02-21T03:10:40;18.60;76.80
47773;DHT22;33534;51.028;13.716;2024-02-21T03:13:06;18.60;76.80
47773;DHT22;33534;51.028;13.716;2024-02-21T03:15:32;18.60;76.90
47773;DHT22;33534;51.028;13.716;2024-02-21T03:17:57;18.60;76.80
47773;DHT22;33534;51.028;13.716;2024-02-21T03:20:23;18.50;76.90
47773;DHT22;33534;51.028;13.716;2024-02-21T03:22:49;18.60;76.80
47773;DHT22;33534;51.028;13.716;2024-02-21T03:25:14;18.60;76.80
47773;DHT22;33534;51.028;13.716;2024-02-21T03:27:40;18.50;77.00
47773;DHT22;33534;51.028;13.716;2024-02-21T03:30:06;18.50;77.00
47773;DHT22;33534;51.028;13.716;2024-02-21T03:32:32;18.60;77.00
47773;DHT22;33534;51.028;13.716;2024-02-21T03:34:57;18.60;76.50
47773;DHT22;33534;51.028;13.716;2024-02-21T03:37:23;18.50;76.40
47773;DHT22;33534;51.028;13.716;2024-02-21T03:39:49;18.60;76.60
47773;DHT22;33534;51.028;13.716;2024-02-21T03:42:14;18.60;76.80
47773;DHT22;33534;51.028;13.716;2024-02-21T03:44:40;18.60;76.70
47773;DHT22;33534;51.028;13.716;2024-02-21T03:47:05;18.60;76.70
47773;DHT22;33534;51.028;13.716;2024-02-21T03:49:31;18.50;76.90
47773;DHT22;33534;51.028;13.716;2024-02-21T03:51:56;18.50;76.90
47773;DHT22;33534;51.028;13.716;2024-02-21T03:54:22;18.50;76.80
47773;DHT22;33534;51.028;13.716;2024-02-21T03:56:48;18.60;76.80
47773;DHT22;33534;51.028;13.716;2024-02-21T03:59:14;18.60;76.50
47773;DHT22;33534;51.028;13.716;2024-02-21T04:01:40;18.60;76.50
47773;DHT22;33534;51.028;13.716;2024-02-21T04:04:05;18.50;76.40
47773;DHT22;33534;51.028;13.716;2024-02-21T04:06:32;18.50;76.40
47773;DHT22;33534;51.028;13.716;2024-02-21T04:08:57;18.60;76.10
47773;DHT22;33534;51.028;13.716;2024-02-21T04:11:23;18.50;76.40
47773;DHT22;33534;51.028;13.716;2024-02-21T04:13:49;18.50;76.30
47773;DHT22;33534;51.028;13.716;2024-02-21T04:16:16;18.50;76.40
47773;DHT22;33534;51.028;13.716;2024-02-21T04:18:42;18.50;76.30
47773;DHT22;33534;51.028;13.716;2024-02-21T04:21:08;18.50;76.40
47773;DHT22;33534;51.028;13.716;2024-02-21T04:23:34;18.50;76.50
47773;DHT22;33534;51.028;13.716;2024-02-21T04:26:00;18.50;76.80
47773;DHT22;33534;51.028;13.716;2024-02-21T04:28:25;18.60;76.80
47773;DHT22;33534;51.028;13.716;2024-02-21T04:30:51;18.60;76.60
47773;DHT22;33534;51.028;13.716;2024-02-21T04:33:16;18.50;76.40
47773;DHT22;33534;51.028;13.716;2024-02-21T04:35:42;18.50;76.40
47773;DHT22;33534;51.028;13.716;2024-02-21T04:38:08;18.50;76.40
47773;DHT22;33534;51.028;13.716;2024-02-21T04:40:33;18.50;76.30
47773;DHT22;33534;51.028;13.716;2024-02-21T04:42:59;18.60;76.40
47773;DHT22;33534;51.028;13.716;2024-02-21T04:45:25;18.50;76.40
47773;DHT22;33534;51.028;13.716;2024-02-21T04:47:50;18.50;76.60
47773;DHT22;33534;51.028;13.716;2024-02-21T04:50:16;18.50;76.90
47773;DHT22;33534;51.028;13.716;2024-02-21T04:52:42;18.60;76.80
47773;DHT22;33534;51.028;13.716;2024-02-21T04:55:08;18.50;76.70
47773;DHT22;33534;51.028;13.716;2024-02-21T04:57:33;18.50;76.90
47773;DHT22;33534;51.028;13.716;2024-02-21T04:59:59;18.50;77.20
47773;DHT22;33534;51.028;13.716;2024-02-21T05:02:25;18.60;77.10
47773;DHT22;33534;51.028;13.716;2024-02-21T05:04:52;18.60;77.20
47773;DHT22;33534;51.028;13.716;2024-02-21T05:07:18;18.60;77.00
47773;DHT22;33534;51.028;13.716;2024-02-21T05:09:45;18.60;77.00
47773;DHT22;33534;51.028;13.716;2024-02-21T05:12:10;18.50;76.90
47773;DHT22;33534;51.028;13.716;2024-02-21T05:14:36;18.60;77.00
47773;DHT22;33534;51.028;13.716;2024-02-21T05:17:03;18.60;77.00
47773;DHT22;33534;51.028;13.716;2024-02-21T05:19:28;18.60;76.90
47773;DHT22;33534;51.028;13.716;2024-02-21T05:21:54;18.60;77.00
47773;DHT22;33534;51.028;13.716;2024-02-21T05:24:20;18.50;76.90
47773;DHT22;33534;51.028;13.716;2024-02-21T05:26:45;18.50;76.90
47773;DHT22;33534;51.028;13.716;2024-02-21T05:29:11;18.60;76.70
47773;DHT22;33534;51.028;13.716;2024-02-21T05:31:55;18.60;76.60
47773;DHT22;33534;51.028;13.716;2024-02-21T05:34:24;18.60;76.40
47773;DHT22;33534;51.028;13.716;2024-02-21T05:36:51;18.60;76.50
47773;DHT22;33534;51.028;13.716;2024-02-21T05:39:17;18.60;76.50
47773;DHT22;33534;51.028;13.716;2024-02-21T05:41:43;18.60;76.50
47773;DHT22;33534;51.028;13.716;2024-02-21T05:44:09;18.60;76.50
47773;DHT22;33534;51.028;13.716;2024-02-21T05:46:34;18.60;76.60
47773;DHT22;33534;51.028;13.716;2024-02-21T05:49:00;18.60;76.50
47773;DHT22;33534;51.028;13.716;2024-02-21T05:51:26;18.60;76.50
47773;DHT22;33534;51.028;13.716;2024-02-21T05:53:52;18.50;76.70
47773;DHT22;33534;51.028;13.716;2024-02-21T05:56:17;18.60;76.50
47773;DHT22;33534;51.028;13.716;2024-02-21T05:58:43;18.50;76.80
47773;DHT22;33534;51.028;13.716;2024-02-21T06:01:10;18.60;76.80
47773;DHT22;33534;51.028;13.716;2024-02-21T06:03:36;18.60;77.10
47773;DHT22;33534;51.028;13.716;2024-02-21T06:06:02;18.60;77.20
47773;DHT22;33534;51.028;13.716;2024-02-21T06:08:28;18.60;77.20
47773;DHT22;33534;51.028;13.716;2024-02-21T06:10:54;18.60;77.00
47773;DHT22;33534;51.028;13.716;2024-02-21T06:13:29;18.60;76.80
47773;DHT22;33534;51.028;13.716;2024-02-21T06:15:54;18.60;77.10
47773;DHT22;33534;51.028;13.716;2024-02-21T06:18:20;18.60;77.10
47773;DHT22;33534;51.028;13.716;2024-02-21T06:20:46;18.60;77.20
47773;DHT22;33534;51.028;13.716;2024-02-21T06:23:16;18.60;77.20
47773;DHT22;33534;51.028;13.716;2024-02-21T06:25:44;18.60;77.30
47773;DHT22;33534;51.028;13.716;2024-02-21T06:28:10;18.50;77.30
47773;DHT22;33534;51.028;13.716;2024-02-21T06:30:36;18.60;77.30
47773;DHT22;33534;51.028;13.716;2024-02-21T06:33:01;18.60;77.30
47773;DHT22;33534;51.028;13.716;2024-02-21T06:35:28;18.60;77.90
47773;DHT22;33534;51.028;13.716;2024-02-21T06:37:54;18.60;78.40
47773;DHT22;33534;51.028;13.716;2024-02-21T06:40:23;18.60;78.70
47773;DHT22;33534;51.028;13.716;2024-02-21T06:42:49;18.10;60.60
47773;DHT22;33534;51.028;13.716;2024-02-21T06:45:15;17.60;59.60
47773;DHT22;33534;51.028;13.716;2024-02-21T06:47:41;17.20;55.90
47773;DHT22;33534;51.028;13.716;2024-02-21T06:50:07;16.90;56.50
47773;DHT22;33534;51.028;13.716;2024-02-21T06:52:34;16.70;60.40
47773;DHT22;33534;51.028;13.716;2024-02-21T06:54:59;16.80;60.90
47773;DHT22;33534;51.028;13.716;2024-02-21T06:57:25;16.90;58.10
47773;DHT22;33534;51.028;13.716;2024-02-21T06:59:51;17.00;64.20
47773;DHT22;33534;51.028;13.716;2024-02-21T07:02:16;17.10;70.00
47773;DHT22;33534;51.028;13.716;2024-02-21T07:04:42;17.30;72.10
47773;DHT22;33534;51.028;13.716;2024-02-21T07:07:09;17.50;73.10
47773;DHT22;33534;51.028;13.716;2024-02-21T07:09:34;17.50;73.20
47773;DHT22;33534;51.028;13.716;2024-02-21T07:12:00;17.60;73.20
47773;DHT22;33534;51.028;13.716;2024-02-21T07:14:28;17.70;73.30
47773;DHT22;33534;51.028;13.716;2024-02-21T07:16:53;17.80;73.40
47773;DHT22;33534;51.028;13.716;2024-02-21T07:19:20;17.90;73.50
47773;DHT22;33534;51.028;13.716;2024-02-21T07:21:45;17.90;73.50
47773;DHT22;33534;51.028;13.716;2024-02-21T07:24:11;18.00;73.40
47773;DHT22;33534;51.028;13.716;2024-02-21T07:26:40;18.00;73.50
47773;DHT22;33534;51.028;13.716;2024-02-21T07:29:06;18.00;73.60
47773;DHT22;33534;51.028;13.716;2024-02-21T07:31:37;18.10;73.60
47773;DHT22;33534;51.028;13.716;2024-02-21T07:34:03;18.10;73.50
47773;DHT22;33534;51.028;13.716;2024-02-21T07:36:29;17.90;60.80
47773;DHT22;33534;51.028;13.716;2024-02-21T07:38:57;17.70;56.30
47773;DHT22;33534;51.028;13.716;2024-02-21T07:41:23;17.50;53.60
47773;DHT22;33534;51.028;13.716;2024-02-21T07:43:48;17.30;52.30
47773;DHT22;33534;51.028;13.716;2024-02-21T07:46:14;17.10;53.70
47773;DHT22;33534;51.028;13.716;2024-02-21T07:48:40;17.00;58.50
47773;DHT22;33534;51.028;13.716;2024-02-21T07:51:05;17.00;63.40
47773;DHT22;33534;51.028;13.716;2024-02-21T07:53:31;17.10;65.20
47773;DHT22;33534;51.028;13.716;2024-02-21T07:55:57;17.20;65.70
47773;DHT22;33534;51.028;13.716;2024-02-21T07:58:22;17.30;66.20
47773;DHT22;33534;51.028;13.716;2024-02-21T08:00:48;17.40;66.60
47773;DHT22;33534;51.028;13.716;2024-02-21T08:03:14;17.50;67.00
47773;DHT22;33534;51.028;13.716;2024-02-21T08:05:40;17.60;67.50
47773;DHT22;33534;51.028;13.716;2024-02-21T08:08:06;17.70;67.80
47773;DHT22;33534;51.028;13.716;2024-02-21T08:10:33;17.70;68.00
47773;DHT22;33534;51.028;13.716;2024-02-21T08:12:59;17.80;68.20
47773;DHT22;33534;51.028;13.716;2024-02-21T08:15:25;17.90;68.30
47773;DHT22;33534;51.028;13.716;2024-02-21T08:17:55;17.90;68.30
47773;DHT22;33534;51.028;13.716;2024-02-21T08:20:25;18.00;68.40
47773;DHT22;33534;51.028;13.716;2024-02-21T08:22:50;18.00;68.50
47773;DHT22;33534;51.028;13.716;2024-02-21T08:25:16;18.00;68.40
47773;DHT22;33534;51.028;13.716;2024-02-21T08:27:41;18.10;68.50
47773;DHT22;33534;51.028;13.716;2024-02-21T08:30:07;18.20;68.60
47773;DHT22;33534;51.028;13.716;2024-02-21T08:32:33;18.10;68.60
47773;DHT22;33534;51.028;13.716;2024-02-21T08:35:01;18.10;68.60
47773;DHT22;33534;51.028;13.716;2024-02-21T08:37:29;18.20;68.60
47773;DHT22;33534;51.028;13.716;2024-02-21T08:39:55;18.20;68.70
47773;DHT22;33534;51.028;13.716;2024-02-21T08:42:20;18.20;68.70
47773;DHT22;33534;51.028;13.716;2024-02-21T08:44:46;18.30;68.80
47773;DHT22;33534;51.028;13.716;2024-02-21T08:47:12;18.30;68.80
47773;DHT22;33534;51.028;13.716;2024-02-21T08:49:37;18.20;68.80
47773;DHT22;33534;51.028;13.716;2024-02-21T08:52:03;18.30;68.90
47773;DHT22;33534;51.028;13.716;2024-02-21T08:54:30;18.30;68.90
47773;DHT22;33534;51.028;13.716;2024-02-21T08:56:56;18.30;68.90
47773;DHT22;33534;51.028;13.716;2024-02-21T08:59:22;18.30;68.90
47773;DHT22;33534;51.028;13.716;2024-02-21T09:01:47;18.30;69.00
47773;DHT22;33534;51.028;13.716;2024-02-21T09:04:13;18.30;69.00
47773;DHT22;33534;51.028;13.716;2024-02-21T09:06:39;18.30;69.10
47773;DHT22;33534;51.028;13.716;2024-02-21T09:09:08;18.30;69.10
47773;DHT22;33534;51.028;13.716;2024-02-21T09:11:34;18.30;69.10
47773;DHT22;33534;51.028;13.716;2024-02-21T09:14:00;18.40;69.10
47773;DHT22;33534;51.028;13.716;2024-02-21T09:16:25;18.40;69.20
47773;DHT22;33534;51.028;13.716;2024-02-21T09:18:51;18.30;69.20
47773;DHT22;33534;51.028;13.716;2024-02-21T09:21:18;18.30;69.20
47773;DHT22;33534;51.028;13.716;2024-02-21T09:23:45;18.30;69.20
47773;DHT22;33534;51.028;13.716;2024-02-21T09:26:10;18.30;69.30
47773;DHT22;33534;51.028;13.716;2024-02-21T09:28:39;18.30;69.30
47773;DHT22;33534;51.028;13.716;2024-02-21T09:31:05;18.30;69.40
47773;DHT22;33534;51.028;13.716;2024-02-21T09:33:30;18.30;69.40
47773;DHT22;33534;51.028;13.716;2024-02-21T09:35:56;18.30;69.50
47773;DHT22;33534;51.028;13.716;2024-02-21T09:38:22;18.30;69.40
47773;DHT22;33534;51.028;13.716;2024-02-21T09:40:48;18.30;69.50
47773;DHT22;33534;51.028;13.716;2024-02-21T09:43:18;18.30;69.50
47773;DHT22;33534;51.028;13.716;2024-02-21T09:45:46;18.30;69.50
47773;DHT22;33534;51.028;13.716;2024-02-21T09:50:46;18.30;69.60
47773;DHT22;33534;51.028;13.716;2024-02-21T09:53:12;18.30;69.60
47773;DHT22;33534;51.028;13.716;2024-02-21T09:55:39;18.30;69.60
47773;DHT22;33534;51.028;13.716;2024-02-21T09:58:07;18.30;69.70
47773;DHT22;33534;51.028;13.716;2024-02-21T10:00:33;18.30;69.70
47773;DHT22;33534;51.028;13.716;2024-02-21T10:02:59;18.30;69.70
47773;DHT22;33534;51.028;13.716;2024-02-21T10:05:24;18.30;69.70
47773;DHT22;33534;51.028;13.716;2024-02-21T10:07:51;18.30;69.70
47773;DHT22;33534;51.028;13.716;2024-02-21T10:10:17;18.30;69.80
47773;DHT22;33534;51.028;13.716;2024-02-21T10:12:53;18.30;69.80
47773;DHT22;33534;51.028;13.716;2024-02-21T10:15:24;18.30;69.80
47773;DHT22;33534;51.028;13.716;2024-02-21T10:17:58;18.30;69.80
47773;DHT22;33534;51.028;13.716;2024-02-21T10:20:24;18.30;69.90
47773;DHT22;33534;51.028;13.716;2024-02-21T10:23:01;18.30;69.90
47773;DHT22;33534;51.028;13.716;2024-02-21T10:25:27;18.30;69.90
47773;DHT22;33534;51.028;13.716;2024-02-21T10:27:53;18.30;69.90
47773;DHT22;33534;51.028;13.716;2024-02-21T10:30:19;18.30;69.90
47773;DHT22;33534;51.028;13.716;2024-02-21T10:32:50;18.30;70.00
47773;DHT22;33534;51.028;13.716;2024-02-21T10:35:28;18.30;70.00
47773;DHT22;33534;51.028;13.716;2024-02-21T10:37:55;18.30;70.00
47773;DHT22;33534;51.028;13.716;2024-02-21T10:40:26;18.20;70.00
47773;DHT22;33534;51.028;13.716;2024-02-21T10:42:59;18.30;70.00
47773;DHT22;33534;51.028;13.716;2024-02-21T10:45:35;18.30;70.10
47773;DHT22;33534;51.028;13.716;2024-02-21T10:48:15;18.30;70.10
47773;DHT22;33534;51.028;13.716;2024-02-21T10:50:57;18.30;70.10
47773;DHT22;33534;51.028;13.716;2024-02-21T10:56:46;18.30;70.10
47773;DHT22;33534;51.028;13.716;2024-02-21T10:58:46;18.30;70.10
47773;DHT22;33534;51.028;13.716;2024-02-21T11:01:13;18.30;70.00
47773;DHT22;33534;51.028;13.716;2024-02-21T11:03:42;18.30;69.90
47773;DHT22;33534;51.028;13.716;2024-02-21T11:06:10;18.40;69.90
47773;DHT22;33534;51.028;13.716;2024-02-21T11:08:36;18.40;69.90
47773;DHT22;33534;51.028;13.716;2024-02-21T11:11:02;18.40;69.80
47773;DHT22;33534;51.028;13.716;2024-02-21T11:13:35;18.40;69.80
47773;DHT22;33534;51.028;13.716;2024-02-21T11:16:11;18.40;69.70
47773;DHT22;33534;51.028;13.716;2024-02-21T11:18:37;18.40;69.70
47773;DHT22;33534;51.028;13.716;2024-02-21T11:21:03;18.40;69.70
47773;DHT22;33534;51.028;13.716;2024-02-21T11:23:32;18.50;69.60
47773;DHT22;33534;51.028;13.716;2024-02-21T11:26:27;18.40;69.60
47773;DHT22;33534;51.028;13.716;2024-02-21T11:28:57;18.40;69.60
47773;DHT22;33534;51.028;13.716;2024-02-21T11:31:25;18.40;69.60
47773;DHT22;33534;51.028;13.716;2024-02-21T11:33:53;18.40;69.50
47773;DHT22;33534;51.028;13.716;2024-02-21T11:36:25;18.50;69.50
47773;DHT22;33534;51.028;13.716;2024-02-21T11:38:52;18.40;69.50
47773;DHT22;33534;51.028;13.716;2024-02-21T11:41:19;18.40;69.50
47773;DHT22;33534;51.028;13.716;2024-02-21T11:43:46;18.40;69.50
47773;DHT22;33534;51.028;13.716;2024-02-21T11:46:13;18.50;69.50
47773;DHT22;33534;51.028;13.716;2024-02-21T11:48:41;18.50;69.50
47773;DHT22;33534;51.028;13.716;2024-02-21T11:51:06;18.40;69.40
47773;DHT22;33534;51.028;13.716;2024-02-21T11:53:32;18.50;69.50
47773;DHT22;33534;51.028;13.716;2024-02-21T11:55:58;18.40;69.50
47773;DHT22;33534;51.028;13.716;2024-02-21T11:58:24;18.50;69.60
47773;DHT22;33534;51.028;13.716;2024-02-21T12:00:50;18.40;69.50
47773;DHT22;33534;51.028;13.716;2024-02-21T12:03:17;18.40;69.50
47773;DHT22;33534;51.028;13.716;2024-02-21T12:05:42;18.40;69.50
47773;DHT22;33534;51.028;13.716;2024-02-21T12:08:08;18.40;69.50
47773;DHT22;33534;51.028;13.716;2024-02-21T12:10:35;18.40;69.50
47773;DHT22;33534;51.028;13.716;2024-02-21T12:13:08;18.40;69.60
47773;DHT22;33534;51.028;13.716;2024-02-21T12:15:34;18.40;69.60
47773;DHT22;33534;51.028;13.716;2024-02-21T12:18:00;18.40;69.60
47773;DHT22;33534;51.028;13.716;2024-02-21T12:20:26;18.40;69.60
47773;DHT22;33534;51.028;13.716;2024-02-21T12:22:52;18.40;69.60
47773;DHT22;33534;51.028;13.716;2024-02-21T12:25:20;18.40;69.60
47773;DHT22;33534;51.028;13.716;2024-02-21T12:27:51;18.40;69.60
47773;DHT22;33534;51.028;13.716;2024-02-21T12:30:17;18.30;69.60
47773;DHT22;33534;51.028;13.716;2024-02-21T12:32:43;18.40;66.10
47773;DHT22;33534;51.028;13.716;2024-02-21T12:35:08;18.20;56.30
47773;DHT22;33534;51.028;13.716;2024-02-21T12:37:34;18.00;52.60
47773;DHT22;33534;51.028;13.716;2024-02-21T12:40:00;17.80;51.30
47773;DHT22;33534;51.028;13.716;2024-02-21T12:42:26;17.60;51.10
47773;DHT22;33534;51.028;13.716;2024-02-21T12:44:52;17.50;51.30
47773;DHT22;33534;51.028;13.716;2024-02-21T12:47:20;17.30;51.60
47773;DHT22;33534;51.028;13.716;2024-02-21T12:49:49;17.10;52.00
47773;DHT22;33534;51.028;13.716;2024-02-21T12:52:15;17.00;52.60
47773;DHT22;33534;51.028;13.716;2024-02-21T12:54:40;16.90;54.80
